sensor_id;sensor_type;location;lat;lon;timestamp;P1;durP1;ratioP1;P2;durP2;ratioP2
60430;SDS011;46285;45.122;20.726;2023-03-05T00:05:55;57.42;;;39.35;;
60430;SDS011;46285;45.122;20.726;2023-03-05T00:15:57;63.90;;;40.83;;
60430;SDS011;46285;45.122;20.726;2023-03-05T00:26:01;71.78;;;44.55;;
60430;SDS011;46285;45.122;20.726;2023-03-05T00:36:04;69.50;;;47.17;;
60430;SDS011;46285;45.122;20.726;2023-03-05T00:46:05;68.93;;;45.17;;
60430;SDS011;46285;45.122;20.726;2023-03-05T00:56:06;69.85;;;46.13;;
60430;SDS011;46285;45.122;20.726;2023-03-05T01:06:09;71.82;;;45.70;;
60430;SDS011;46285;45.122;20.726;2023-03-05T01:16:11;71.57;;;46.45;;
60430;SDS011;46285;45.122;20.726;2023-03-05T01:26:12;89.43;;;50.22;;
60430;SDS011;46285;45.122;20.726;2023-03-05T01:36:14;62.40;;;41.20;;
60430;SDS011;46285;45.122;20.726;2023-03-05T01:56:19;61.78;;;37.47;;
60430;SDS011;46285;45.122;20.726;2023-03-05T02:06:21;48.65;;;34.40;;
60430;SDS011;46285;45.122;20.726;2023-03-05T02:16:38;51.55;;;31.30;;
60430;SDS011;46285;45.122;20.726;2023-03-05T02:26:41;64.93;;;38.22;;
60430;SDS011;46285;45.122;20.726;2023-03-05T02:36:42;55.90;;;37.30;;
60430;SDS011;46285;45.122;20.726;2023-03-05T02:46:44;43.85;;;29.08;;
60430;SDS011;46285;45.122;20.726;2023-03-05T02:56:46;39.65;;;22.83;;
60430;SDS011;46285;45.122;20.726;2023-03-05T03:06:47;35.83;;;20.83;;
60430;SDS011;46285;45.122;20.726;2023-03-05T03:16:48;31.95;;;19.95;;
60430;SDS011;46285;45.122;20.726;2023-03-05T03:26:51;33.50;;;20.20;;
60430;SDS011;46285;45.122;20.726;2023-03-05T03:36:52;27.73;;;16.73;;
60430;SDS011;46285;45.122;20.726;2023-03-05T03:46:53;21.40;;;13.55;;
60430;SDS011;46285;45.122;20.726;2023-03-05T03:56:54;28.15;;;14.80;;
60430;SDS011;46285;45.122;20.726;2023-03-05T04:06:55;24.35;;;15.48;;
60430;SDS011;46285;45.122;20.726;2023-03-05T04:16:56;23.92;;;14.07;;
60430;SDS011;46285;45.122;20.726;2023-03-05T04:26:58;27.02;;;13.90;;
60430;SDS011;46285;45.122;20.726;2023-03-05T04:37:00;21.40;;;12.40;;
60430;SDS011;46285;45.122;20.726;2023-03-05T04:47:01;23.52;;;13.98;;
60430;SDS011;46285;45.122;20.726;2023-03-05T04:57:02;22.48;;;14.50;;
60430;SDS011;46285;45.122;20.726;2023-03-05T05:07:03;25.38;;;15.55;;
60430;SDS011;46285;45.122;20.726;2023-03-05T05:17:04;30.70;;;15.98;;
60430;SDS011;46285;45.122;20.726;2023-03-05T05:27:05;24.60;;;15.02;;
60430;SDS011;46285;45.122;20.726;2023-03-05T05:37:08;23.23;;;13.75;;
60430;SDS011;46285;45.122;20.726;2023-03-05T05:47:09;22.63;;;13.05;;
60430;SDS011;46285;45.122;20.726;2023-03-05T05:57:10;28.42;;;15.75;;
60430;SDS011;46285;45.122;20.726;2023-03-05T06:07:11;36.72;;;19.80;;
60430;SDS011;46285;45.122;20.726;2023-03-05T06:17:12;49.40;;;29.00;;
60430;SDS011;46285;45.122;20.726;2023-03-05T06:27:13;106.63;;;61.00;;
60430;SDS011;46285;45.122;20.726;2023-03-05T06:37:14;34.67;;;22.45;;
60430;SDS011;46285;45.122;20.726;2023-03-05T06:47:16;26.27;;;14.95;;
60430;SDS011;46285;45.122;20.726;2023-03-05T06:57:17;19.10;;;13.23;;
60430;SDS011;46285;45.122;20.726;2023-03-05T07:07:18;26.88;;;18.45;;
60430;SDS011;46285;45.122;20.726;2023-03-05T07:17:19;20.02;;;12.93;;
60430;SDS011;46285;45.122;20.726;2023-03-05T07:27:20;55.70;;;36.15;;
60430;SDS011;46285;45.122;20.726;2023-03-05T07:37:21;45.15;;;27.17;;
60430;SDS011;46285;45.122;20.726;2023-03-05T07:47:22;47.03;;;27.92;;
60430;SDS011;46285;45.122;20.726;2023-03-05T07:57:23;62.83;;;38.47;;
60430;SDS011;46285;45.122;20.726;2023-03-05T08:07:24;31.45;;;20.27;;
60430;SDS011;46285;45.122;20.726;2023-03-05T08:17:25;42.90;;;27.73;;
60430;SDS011;46285;45.122;20.726;2023-03-05T08:27:27;32.25;;;21.58;;
60430;SDS011;46285;45.122;20.726;2023-03-05T08:37:28;59.60;;;36.45;;
60430;SDS011;46285;45.122;20.726;2023-03-05T08:47:29;31.60;;;23.33;;
60430;SDS011;46285;45.122;20.726;2023-03-05T08:57:31;27.17;;;19.35;;
60430;SDS011;46285;45.122;20.726;2023-03-05T09:07:32;22.95;;;15.75;;
60430;SDS011;46285;45.122;20.726;2023-03-05T09:17:34;27.60;;;20.75;;
60430;SDS011;46285;45.122;20.726;2023-03-05T09:27:35;28.52;;;20.58;;
60430;SDS011;46285;45.122;20.726;2023-03-05T09:37:36;136.88;;;75.47;;
60430;SDS011;46285;45.122;20.726;2023-03-05T09:57:43;35.25;;;21.88;;
60430;SDS011;46285;45.122;20.726;2023-03-05T10:07:50;23.42;;;14.63;;
60430;SDS011;46285;45.122;20.726;2023-03-05T10:17:57;26.58;;;15.70;;
60430;SDS011;46285;45.122;20.726;2023-03-05T10:28:03;19.42;;;11.93;;
60430;SDS011;46285;45.122;20.726;2023-03-05T10:48:27;40.63;;;26.52;;
60430;SDS011;46285;45.122;20.726;2023-03-05T10:58:28;24.65;;;16.35;;
60430;SDS011;46285;45.122;20.726;2023-03-05T11:08:33;28.20;;;16.92;;
60430;SDS011;46285;45.122;20.726;2023-03-05T11:18:35;29.93;;;18.83;;
60430;SDS011;46285;45.122;20.726;2023-03-05T11:28:40;22.90;;;16.00;;
60430;SDS011;46285;45.122;20.726;2023-03-05T11:49:07;19.15;;;12.93;;
60430;SDS011;46285;45.122;20.726;2023-03-05T11:59:19;30.27;;;18.38;;
60430;SDS011;46285;45.122;20.726;2023-03-05T12:19:47;20.27;;;12.23;;
60430;SDS011;46285;45.122;20.726;2023-03-05T12:29:51;16.67;;;11.23;;
60430;SDS011;46285;45.122;20.726;2023-03-05T12:40:11;19.50;;;11.98;;
60430;SDS011;46285;45.122;20.726;2023-03-05T13:10:30;24.60;;;15.20;;
60430;SDS011;46285;45.122;20.726;2023-03-05T13:20:35;62.50;;;36.53;;
60430;SDS011;46285;45.122;20.726;2023-03-05T13:30:36;43.42;;;33.20;;
60430;SDS011;46285;45.122;20.726;2023-03-05T13:40:39;194.50;;;110.03;;
60430;SDS011;46285;45.122;20.726;2023-03-05T13:50:40;62.33;;;37.53;;
60430;SDS011;46285;45.122;20.726;2023-03-05T14:00:41;58.38;;;37.58;;
60430;SDS011;46285;45.122;20.726;2023-03-05T14:10:42;54.53;;;34.35;;
60430;SDS011;46285;45.122;20.726;2023-03-05T14:20:58;37.60;;;22.30;;
60430;SDS011;46285;45.122;20.726;2023-03-05T14:30:59;25.33;;;14.47;;
60430;SDS011;46285;45.122;20.726;2023-03-05T14:41:20;27.65;;;16.30;;
60430;SDS011;46285;45.122;20.726;2023-03-05T14:51:21;34.95;;;20.88;;
60430;SDS011;46285;45.122;20.726;2023-03-05T15:01:24;31.38;;;18.58;;
60430;SDS011;46285;45.122;20.726;2023-03-05T15:11:25;28.70;;;18.35;;
60430;SDS011;46285;45.122;20.726;2023-03-05T15:21:26;32.17;;;19.42;;
60430;SDS011;46285;45.122;20.726;2023-03-05T15:31:28;42.40;;;24.25;;
60430;SDS011;46285;45.122;20.726;2023-03-05T15:41:29;35.42;;;23.83;;
60430;SDS011;46285;45.122;20.726;2023-03-05T15:51:30;54.13;;;35.55;;
60430;SDS011;46285;45.122;20.726;2023-03-05T16:01:31;34.75;;;21.02;;
60430;SDS011;46285;45.122;20.726;2023-03-05T16:11:33;51.25;;;34.80;;
60430;SDS011;46285;45.122;20.726;2023-03-05T16:21:35;57.50;;;35.33;;
60430;SDS011;46285;45.122;20.726;2023-03-05T16:31:36;65.30;;;45.97;;
60430;SDS011;46285;45.122;20.726;2023-03-05T16:41:38;76.15;;;48.47;;
60430;SDS011;46285;45.122;20.726;2023-03-05T16:51:43;69.65;;;40.13;;
60430;SDS011;46285;45.122;20.726;2023-03-05T17:01:45;72.32;;;42.05;;
60430;SDS011;46285;45.122;20.726;2023-03-05T17:11:46;102.20;;;53.80;;
60430;SDS011;46285;45.122;20.726;2023-03-05T17:21:47;158.90;;;69.65;;
60430;SDS011;46285;45.122;20.726;2023-03-05T17:31:49;96.53;;;54.10;;
60430;SDS011;46285;45.122;20.726;2023-03-05T17:41:51;77.85;;;41.28;;
60430;SDS011;46285;45.122;20.726;2023-03-05T17:51:53;86.38;;;48.70;;
60430;SDS011;46285;45.122;20.726;2023-03-05T18:01:54;117.93;;;59.88;;
60430;SDS011;46285;45.122;20.726;2023-03-05T18:11:55;154.80;;;89.78;;
60430;SDS011;46285;45.122;20.726;2023-03-05T18:21:57;95.05;;;53.42;;
60430;SDS011;46285;45.122;20.726;2023-03-05T18:31:59;95.82;;;56.80;;
60430;SDS011;46285;45.122;20.726;2023-03-05T18:42:04;108.72;;;65.00;;
60430;SDS011;46285;45.122;20.726;2023-03-05T18:52:05;140.23;;;70.47;;
60430;SDS011;46285;45.122;20.726;2023-03-05T19:02:13;101.32;;;66.13;;
60430;SDS011;46285;45.122;20.726;2023-03-05T19:12:15;262.77;;;147.80;;
60430;SDS011;46285;45.122;20.726;2023-03-05T19:22:16;354.08;;;192.25;;
60430;SDS011;46285;45.122;20.726;2023-03-05T19:32:18;163.48;;;85.63;;
60430;SDS011;46285;45.122;20.726;2023-03-05T19:42:19;113.55;;;61.78;;
60430;SDS011;46285;45.122;20.726;2023-03-05T19:52:21;351.15;;;171.43;;
60430;SDS011;46285;45.122;20.726;2023-03-05T20:02:22;94.55;;;51.17;;
60430;SDS011;46285;45.122;20.726;2023-03-05T20:12:23;153.75;;;81.07;;
60430;SDS011;46285;45.122;20.726;2023-03-05T20:22:25;158.40;;;76.32;;
60430;SDS011;46285;45.122;20.726;2023-03-05T20:32:26;138.13;;;72.50;;
60430;SDS011;46285;45.122;20.726;2023-03-05T20:42:28;141.63;;;68.28;;
60430;SDS011;46285;45.122;20.726;2023-03-05T20:52:29;94.47;;;50.40;;
60430;SDS011;46285;45.122;20.726;2023-03-05T21:02:32;99.00;;;57.53;;
60430;SDS011;46285;45.122;20.726;2023-03-05T21:12:33;120.13;;;61.33;;
60430;SDS011;46285;45.122;20.726;2023-03-05T21:22:34;82.68;;;43.13;;
60430;SDS011;46285;45.122;20.726;2023-03-05T21:32:36;74.03;;;38.50;;
60430;SDS011;46285;45.122;20.726;2023-03-05T21:42:40;88.05;;;45.90;;
60430;SDS011;46285;45.122;20.726;2023-03-05T21:52:41;96.00;;;50.60;;
60430;SDS011;46285;45.122;20.726;2023-03-05T22:02:42;86.10;;;52.67;;
60430;SDS011;46285;45.122;20.726;2023-03-05T22:13:03;95.45;;;56.10;;
60430;SDS011;46285;45.122;20.726;2023-03-05T22:23:05;97.82;;;58.67;;
60430;SDS011;46285;45.122;20.726;2023-03-05T22:33:06;94.85;;;55.75;;
60430;SDS011;46285;45.122;20.726;2023-03-05T22:43:07;87.47;;;52.53;;
60430;SDS011;46285;45.122;20.726;2023-03-05T22:53:09;106.53;;;64.75;;
60430;SDS011;46285;45.122;20.726;2023-03-05T23:03:14;96.32;;;57.30;;
60430;SDS011;46285;45.122;20.726;2023-03-05T23:13:15;73.53;;;42.85;;
60430;SDS011;46285;45.122;20.726;2023-03-05T23:23:16;92.13;;;52.22;;
60430;SDS011;46285;45.122;20.726;2023-03-05T23:33:18;76.22;;;46.13;;
60430;SDS011;46285;45.122;20.726;2023-03-05T23:43:20;99.32;;;55.28;;
60430;SDS011;46285;45.122;20.726;2023-03-05T23:53:24;79.95;;;46.25;;
